Time;durP1;ratioP1;P1;durP2;ratioP2;P2;SDS_P1;SDS_P2;PMS_P1;PMS_P2;Temp;Humidity;BMP_temperature;BMP_pressure;BME280_temperature;BME280_humidity;BME280_pressure;Samples;Min_cycle;Max_cycle;Signal;HPM_P1;HPM_P2
2021/10/23 00:00:33;;;;;;;3.85;2.25;;;10.10;98.80;;;;;;4972665;28;20697;-55
2021/10/23 00:02:59;;;;;;;3.33;2.05;;;10.40;98.90;;;;;;4974256;28;20189;-55
2021/10/23 00:05:24;;;;;;;4.00;2.13;;;10.00;98.70;;;;;;4973460;28;20203;-55
2021/10/23 00:07:50;;;;;;;1.70;1.60;;;10.20;99.00;;;;;;4973944;28;20562;-56
2021/10/23 00:10:15;;;;;;;3.23;1.60;;;10.20;99.10;;;;;;4975005;28;20696;-55
2021/10/23 00:12:41;;;;;;;2.63;1.77;;;10.00;99.20;;;;;;4974033;28;20574;-55
2021/10/23 00:15:07;;;;;;;4.70;2.50;;;9.80;99.90;;;;;;4972700;28;20651;-55
2021/10/23 00:17:33;;;;;;;3.33;2.20;;;10.00;99.50;;;;;;4966392;28;20259;-55
2021/10/23 00:20:00;;;;;;;5.47;2.40;;;10.00;99.30;;;;;;4966126;28;20733;-55
2021/10/23 00:22:29;;;;;;;6.03;1.90;;;10.00;99.40;;;;;;4973669;28;20200;-55
2021/10/23 00:24:55;;;;;;;3.10;2.80;;;10.20;99.50;;;;;;4972874;28;20271;-55
2021/10/23 00:27:21;;;;;;;2.73;2.40;;;10.40;99.60;;;;;;4954504;28;20730;-55
2021/10/23 00:29:47;;;;;;;3.23;1.80;;;10.20;99.70;;;;;;4975074;28;20465;-55
2021/10/23 00:32:13;;;;;;;4.30;2.23;;;10.30;99.80;;;;;;4955673;28;20282;-56
2021/10/23 00:34:39;;;;;;;3.50;2.10;;;10.30;99.90;;;;;;4974413;28;20653;-56
2021/10/23 00:37:04;;;;;;;2.77;1.73;;;10.10;99.90;;;;;;4972985;28;20230;-56
2021/10/23 00:39:30;;;;;;;2.87;1.80;;;10.10;99.90;;;;;;4971991;28;20302;-56
2021/10/23 00:41:56;;;;;;;3.80;2.30;;;10.20;99.90;;;;;;4967051;28;20291;-56
2021/10/23 00:44:31;;;;;;;2.40;2.20;;;10.00;99.90;;;;;;4975029;28;20415;-56
2021/10/23 00:47:04;;;;;;;5.53;3.33;;;9.90;99.90;;;;;;4969629;28;20192;-55
2021/10/23 00:49:30;;;;;;;3.20;1.88;;;10.10;99.90;;;;;;4969125;28;20211;-55
2021/10/23 00:51:57;;;;;;;3.70;1.60;;;10.30;99.90;;;;;;4971551;28;20193;-55
2021/10/23 00:54:25;;;;;;;4.65;2.10;;;10.30;99.90;;;;;;4971334;28;20716;-55
2021/10/23 00:56:51;;;;;;;3.13;1.80;;;10.40;99.90;;;;;;4969338;28;20263;-55
2021/10/23 00:59:17;;;;;;;4.45;2.15;;;10.30;99.90;;;;;;4968910;28;20205;-55
2021/10/23 01:01:43;;;;;;;2.10;1.90;;;10.00;99.90;;;;;;4970548;28;20191;-56
2021/10/23 01:04:09;;;;;;;2.83;2.63;;;10.20;99.90;;;;;;4971972;28;20658;-56
2021/10/23 01:06:35;;;;;;;5.20;2.15;;;10.40;99.90;;;;;;4971268;28;20219;-55
2021/10/23 01:09:01;;;;;;;2.63;1.77;;;10.30;99.90;;;;;;4970617;28;20693;-55
2021/10/23 01:11:27;;;;;;;2.47;1.70;;;10.40;99.90;;;;;;4967878;28;20977;-55
2021/10/23 01:13:53;;;;;;;3.95;2.03;;;10.20;99.90;;;;;;4971361;28;20185;-55
2021/10/23 01:16:18;;;;;;;2.43;2.07;;;10.20;99.90;;;;;;4970058;28;20188;-56
2021/10/23 01:18:45;;;;;;;2.60;1.60;;;10.00;99.90;;;;;;4970271;28;20211;-56
2021/10/23 01:21:10;;;;;;;4.60;2.10;;;10.20;99.90;;;;;;4970687;28;20602;-56
2021/10/23 01:23:36;;;;;;;2.67;2.10;;;10.40;99.90;;;;;;4971157;28;20189;-55
2021/10/23 01:26:02;;;;;;;8.27;2.10;;;10.20;99.90;;;;;;4970425;28;20254;-55
2021/10/23 01:28:28;;;;;;;3.08;2.00;;;10.20;99.90;;;;;;4970711;28;20276;-55
2021/10/23 01:30:55;;;;;;;4.27;2.13;;;10.00;99.90;;;;;;4966557;28;20272;-55
2021/10/23 01:33:21;;;;;;;3.20;2.15;;;10.10;99.90;;;;;;4968523;28;20410;-55
2021/10/23 01:35:47;;;;;;;2.63;1.90;;;10.30;99.90;;;;;;4970874;28;20669;-55
2021/10/23 01:38:12;;;;;;;1.90;1.80;;;9.80;99.90;;;;;;4968333;28;20212;-55
2021/10/23 01:40:38;;;;;;;6.60;2.17;;;9.80;99.90;;;;;;4970135;28;20204;-55
2021/10/23 01:43:05;;;;;;;2.27;2.07;;;10.30;99.90;;;;;;4971143;28;20683;-55
2021/10/23 01:45:31;;;;;;;3.00;2.08;;;10.10;99.90;;;;;;4971642;28;20192;-55
2021/10/23 01:47:57;;;;;;;3.30;1.90;;;10.20;99.90;;;;;;4974243;28;20595;-55
2021/10/23 01:50:25;;;;;;;2.63;1.80;;;10.10;99.90;;;;;;4974579;28;20502;-56
2021/10/23 01:52:52;;;;;;;2.10;1.90;;;10.30;99.90;;;;;;4973462;28;20219;-56
2021/10/23 01:55:18;;;;;;;2.75;1.65;;;10.00;99.90;;;;;;4973549;28;20196;-56
2021/10/23 01:57:45;;;;;;;3.85;2.13;;;10.20;99.90;;;;;;4974217;28;20300;-55
2021/10/23 02:00:12;;;;;;;4.35;2.47;;;10.20;99.90;;;;;;4973322;28;20558;-55
2021/10/23 02:02:39;;;;;;;3.75;2.00;;;10.00;99.90;;;;;;4969278;28;20196;-56
2021/10/23 02:05:05;;;;;;;3.88;1.90;;;10.00;99.90;;;;;;4974908;28;20189;-55
2021/10/23 02:07:31;;;;;;;4.83;2.00;;;9.90;99.90;;;;;;4974684;28;20193;-55
2021/10/23 02:09:57;;;;;;;3.60;1.77;;;9.80;99.90;;;;;;4969324;28;20547;-55
2021/10/23 02:12:22;;;;;;;2.65;1.90;;;9.70;99.90;;;;;;4953441;28;20189;-55
2021/10/23 02:14:48;;;;;;;3.40;1.80;;;9.80;99.90;;;;;;4974368;28;20517;-55
2021/10/23 02:17:14;;;;;;;3.27;2.10;;;9.60;99.90;;;;;;4971544;28;20212;-55
2021/10/23 02:19:40;;;;;;;2.87;2.10;;;9.60;99.90;;;;;;4973276;28;20501;-56
2021/10/23 02:22:05;;;;;;;5.63;2.53;;;9.60;99.90;;;;;;4966423;28;20184;-55
2021/10/23 02:24:31;;;;;;;3.17;1.87;;;9.60;99.90;;;;;;4972761;28;20795;-55
2021/10/23 02:26:57;;;;;;;4.33;1.80;;;9.70;99.90;;;;;;4973538;28;20541;-55
2021/10/23 02:29:22;;;;;;;2.90;1.90;;;9.70;99.90;;;;;;4971563;28;20669;-55
2021/10/23 02:31:48;;;;;;;3.77;1.90;;;9.60;99.90;;;;;;4961133;28;20248;-55
2021/10/23 02:34:14;;;;;;;1.77;1.67;;;9.70;99.90;;;;;;4973587;28;20556;-55
2021/10/23 02:36:40;;;;;;;5.83;1.90;;;9.80;99.90;;;;;;4965558;28;20209;-56
2021/10/23 02:39:05;;;;;;;4.53;2.30;;;9.60;99.90;;;;;;4968053;28;20205;-55
2021/10/23 02:41:31;;;;;;;2.20;1.83;;;9.60;99.90;;;;;;4967866;28;20402;-55
2021/10/23 02:43:58;;;;;;;2.53;1.60;;;9.60;99.90;;;;;;4972215;28;20315;-56
2021/10/23 02:46:24;;;;;;;9.70;2.55;;;9.30;99.90;;;;;;4950703;28;20180;-55
2021/10/23 02:48:50;;;;;;;3.33;1.90;;;9.40;99.90;;;;;;4973766;28;20231;-55
2021/10/23 02:51:16;;;;;;;4.70;1.70;;;9.30;99.90;;;;;;4972807;28;20422;-55
2021/10/23 02:53:42;;;;;;;3.00;2.13;;;9.30;99.90;;;;;;4971839;28;20275;-55
2021/10/23 02:56:07;;;;;;;4.40;2.20;;;9.60;99.90;;;;;;4973608;28;20497;-55
2021/10/23 02:58:33;;;;;;;5.10;2.10;;;9.40;99.90;;;;;;4970812;28;20197;-55
2021/10/23 03:00:59;;;;;;;3.07;2.23;;;9.20;99.90;;;;;;4972756;28;20645;-55
2021/10/23 03:03:24;;;;;;;2.40;2.20;;;9.00;99.90;;;;;;4973144;28;20693;-55
2021/10/23 03:05:50;;;;;;;4.67;1.90;;;9.60;99.90;;;;;;4973149;28;20192;-56
2021/10/23 03:08:16;;;;;;;3.30;2.37;;;9.30;99.90;;;;;;4973311;28;20189;-54
2021/10/23 03:10:42;;;;;;;2.70;1.93;;;9.30;99.90;;;;;;4971577;28;20216;-55
2021/10/23 03:13:10;;;;;;;1.85;1.45;;;9.20;99.90;;;;;;4973293;28;20414;-55
2021/10/23 03:15:36;;;;;;;2.70;2.20;;;9.20;99.90;;;;;;4971135;28;20220;-55
2021/10/23 03:18:01;;;;;;;2.88;1.80;;;9.20;99.90;;;;;;4972759;28;20220;-55
2021/10/23 03:20:27;;;;;;;3.90;2.67;;;9.30;99.90;;;;;;4972471;28;20240;-55
2021/10/23 03:22:53;;;;;;;2.80;1.70;;;9.40;99.90;;;;;;4972782;28;20599;-56
2021/10/23 03:25:19;;;;;;;3.27;2.30;;;9.50;99.90;;;;;;4972714;28;20187;-55
2021/10/23 03:27:44;;;;;;;3.33;2.17;;;9.40;99.90;;;;;;4972955;28;20231;-55
2021/10/23 03:30:10;;;;;;;3.23;2.20;;;9.30;99.90;;;;;;4972325;28;20223;-55
2021/10/23 03:32:36;;;;;;;3.47;1.80;;;9.50;99.90;;;;;;4969870;28;20276;-56
2021/10/23 03:35:03;;;;;;;3.50;1.80;;;9.20;99.90;;;;;;4972487;28;20231;-55
2021/10/23 03:37:33;;;;;;;3.22;2.08;;;9.30;99.90;;;;;;4972552;28;20212;-55
2021/10/23 03:40:00;;;;;;;4.25;1.90;;;9.30;99.90;;;;;;4952511;28;20204;-55
2021/10/23 03:42:26;;;;;;;3.05;2.00;;;9.40;99.90;;;;;;4972608;28;20243;-55
2021/10/23 03:44:52;;;;;;;6.13;2.37;;;9.40;99.90;;;;;;4972600;28;20653;-55
2021/10/23 03:47:18;;;;;;;3.33;2.53;;;9.40;99.90;;;;;;4968393;28;20436;-55
2021/10/23 03:49:45;;;;;;;2.13;1.70;;;9.50;99.90;;;;;;4972139;28;20558;-55
2021/10/23 03:52:11;;;;;;;4.32;2.10;;;9.20;99.90;;;;;;4954182;28;20199;-55
2021/10/23 03:54:37;;;;;;;3.33;2.67;;;9.30;99.90;;;;;;4975425;28;20196;-55
2021/10/23 03:57:04;;;;;;;3.47;2.15;;;9.30;99.90;;;;;;4968329;28;20307;-55
2021/10/23 03:59:30;;;;;;;3.33;2.08;;;9.40;99.90;;;;;;4980720;28;20697;-55
2021/10/23 04:01:56;;;;;;;3.67;2.00;;;9.20;99.90;;;;;;4972859;28;20242;-55
2021/10/23 04:04:22;;;;;;;7.70;2.47;;;9.40;99.90;;;;;;4978825;28;20268;-55
2021/10/23 04:06:48;;;;;;;4.20;1.90;;;9.20;99.90;;;;;;4977378;28;20534;-55
2021/10/23 04:09:14;;;;;;;3.03;2.72;;;9.20;99.90;;;;;;4974325;28;20227;-55
2021/10/23 04:11:40;;;;;;;2.73;2.40;;;9.20;99.90;;;;;;4976866;28;20184;-55
2021/10/23 04:14:06;;;;;;;3.10;1.88;;;9.30;99.90;;;;;;4976727;28;20219;-55
2021/10/23 04:16:31;;;;;;;2.50;2.17;;;9.00;99.90;;;;;;4972328;28;20715;-56
2021/10/23 04:18:57;;;;;;;2.50;1.90;;;9.00;99.90;;;;;;4977973;28;20200;-56
2021/10/23 04:21:23;;;;;;;4.13;2.43;;;9.30;99.90;;;;;;4971968;28;20188;-55
2021/10/23 04:23:48;;;;;;;2.73;2.30;;;9.20;99.90;;;;;;4980093;28;20444;-55
2021/10/23 04:26:14;;;;;;;2.40;2.20;;;9.00;99.90;;;;;;4969625;28;20442;-56
2021/10/23 04:28:40;;;;;;;5.00;2.40;;;8.90;99.90;;;;;;4980288;28;20561;-55
2021/10/23 04:31:05;;;;;;;2.90;2.10;;;9.00;99.90;;;;;;4973854;28;20186;-58
2021/10/23 04:33:31;;;;;;;3.93;2.43;;;9.30;99.90;;;;;;4980571;28;20431;-55
2021/10/23 04:35:57;;;;;;;5.03;2.20;;;9.00;99.90;;;;;;4975534;28;20185;-55
2021/10/23 04:38:24;;;;;;;5.43;2.30;;;9.10;99.90;;;;;;4977058;28;20222;-55
2021/10/23 04:40:50;;;;;;;4.55;2.50;;;9.10;99.90;;;;;;4970443;28;20445;-55
2021/10/23 04:43:15;;;;;;;3.30;2.67;;;8.90;99.90;;;;;;4977639;28;20270;-55
2021/10/23 04:45:41;;;;;;;3.57;2.60;;;9.00;99.90;;;;;;4972649;28;20185;-55
2021/10/23 04:48:07;;;;;;;11.17;2.87;;;9.00;99.90;;;;;;4968130;28;20696;-55
2021/10/23 04:50:32;;;;;;;4.47;2.40;;;8.90;99.90;;;;;;4973105;28;20211;-55
2021/10/23 04:52:58;;;;;;;4.43;2.57;;;9.10;99.90;;;;;;4975226;28;20188;-55
2021/10/23 04:55:24;;;;;;;5.07;2.70;;;8.80;99.90;;;;;;4970827;28;20247;-55
2021/10/23 04:57:50;;;;;;;6.53;2.63;;;8.80;99.90;;;;;;4971056;28;20981;-55
2021/10/23 05:00:16;;;;;;;3.47;2.23;;;8.90;99.90;;;;;;4972498;28;20434;-55
2021/10/23 05:02:41;;;;;;;6.03;2.40;;;8.90;99.90;;;;;;4973261;28;20180;-55
2021/10/23 05:05:07;;;;;;;2.70;2.37;;;8.90;99.90;;;;;;4975860;28;20211;-55
2021/10/23 05:07:33;;;;;;;3.15;2.45;;;9.00;99.90;;;;;;4972126;28;20238;-55
2021/10/23 05:09:59;;;;;;;5.00;2.60;;;9.20;99.90;;;;;;4978306;28;20242;-55
2021/10/23 05:12:25;;;;;;;3.80;2.93;;;9.30;99.90;;;;;;4953327;28;20426;-55
2021/10/23 05:14:51;;;;;;;5.87;2.80;;;8.90;99.90;;;;;;4970940;28;20455;-55
2021/10/23 05:17:16;;;;;;;3.73;2.43;;;8.60;99.90;;;;;;4951530;28;20212;-54
2021/10/23 05:19:42;;;;;;;4.13;2.53;;;8.90;99.90;;;;;;4970898;28;20255;-55
2021/10/23 05:22:08;;;;;;;3.10;2.20;;;8.90;99.90;;;;;;4974894;28;20250;-55
2021/10/23 05:24:34;;;;;;;3.80;2.70;;;9.20;99.90;;;;;;4974049;28;20685;-55
2021/10/23 05:26:59;;;;;;;5.07;2.85;;;9.10;99.90;;;;;;4973384;28;20474;-55
2021/10/23 05:29:25;;;;;;;3.60;2.70;;;9.30;99.90;;;;;;4974694;28;20673;-55
2021/10/23 05:31:51;;;;;;;2.43;2.13;;;9.40;99.90;;;;;;4957077;28;20184;-55
2021/10/23 05:34:17;;;;;;;4.00;2.13;;;9.40;99.90;;;;;;4974471;28;20600;-55
2021/10/23 05:36:43;;;;;;;4.03;2.83;;;9.20;99.90;;;;;;4974678;28;20675;-55
2021/10/23 05:39:09;;;;;;;2.80;2.37;;;9.20;99.90;;;;;;4974342;28;20283;-55
2021/10/23 05:41:34;;;;;;;2.30;2.10;;;9.00;99.90;;;;;;4972912;28;20215;-55
2021/10/23 05:44:00;;;;;;;4.27;2.03;;;9.00;99.90;;;;;;4976316;28;20470;-56
2021/10/23 05:46:26;;;;;;;3.60;2.75;;;9.10;99.90;;;;;;4972876;28;20192;-54
2021/10/23 05:48:52;;;;;;;8.80;2.80;;;9.20;99.90;;;;;;4973902;28;20219;-55
2021/10/23 05:51:17;;;;;;;2.50;2.23;;;8.90;99.90;;;;;;4974046;28;20553;-55
2021/10/23 05:53:43;;;;;;;2.90;2.60;;;9.00;99.90;;;;;;4973964;28;20183;-55
2021/10/23 05:56:09;;;;;;;3.30;2.80;;;8.50;99.90;;;;;;4973479;28;20263;-54
2021/10/23 05:58:34;;;;;;;3.00;2.70;;;9.10;99.90;;;;;;4973456;28;20228;-54
2021/10/23 06:01:06;;;;;;;3.73;2.47;;;9.30;99.90;;;;;;4973900;28;20267;-56
2021/10/23 06:03:34;;;;;;;3.65;2.40;;;9.40;99.90;;;;;;4974367;28;20203;-55
2021/10/23 06:06:01;;;;;;;6.47;2.60;;;9.20;99.90;;;;;;4974118;28;20654;-55
2021/10/23 06:08:27;;;;;;;3.28;2.83;;;9.20;99.90;;;;;;4972952;28;20203;-54
2021/10/23 06:10:53;;;;;;;6.37;2.77;;;9.20;99.90;;;;;;4973368;28;20186;-55
2021/10/23 06:13:21;;;;;;;4.30;2.67;;;9.30;99.90;;;;;;4974359;28;20673;-55
2021/10/23 06:15:46;;;;;;;2.97;2.67;;;9.10;99.90;;;;;;4973187;28;20189;-56
2021/10/23 06:18:12;;;;;;;4.43;2.83;;;9.40;99.90;;;;;;4973853;28;20220;-56
2021/10/23 06:20:38;;;;;;;5.00;2.90;;;9.30;99.90;;;;;;4973278;28;20208;-58
2021/10/23 06:23:03;;;;;;;2.53;2.33;;;9.20;99.90;;;;;;4974552;28;20286;-54
2021/10/23 06:25:29;;;;;;;3.63;2.40;;;9.30;99.90;;;;;;4973444;28;20316;-55
2021/10/23 06:27:56;;;;;;;4.03;2.43;;;9.20;99.90;;;;;;4973685;28;20227;-54
2021/10/23 06:30:24;;;;;;;2.95;2.72;;;9.10;99.90;;;;;;4973235;28;20235;-54
2021/10/23 06:32:52;;;;;;;2.83;2.63;;;9.60;99.90;;;;;;4969864;28;20192;-55
2021/10/23 06:35:18;;;;;;;5.57;2.88;;;9.30;99.90;;;;;;4973521;28;20283;-55
2021/10/23 06:37:44;;;;;;;4.30;3.22;;;9.20;99.90;;;;;;4973140;28;20274;-55
2021/10/23 06:40:10;;;;;;;4.30;2.57;;;9.40;99.90;;;;;;4973470;28;20572;-55
2021/10/23 06:42:41;;;;;;;4.70;2.88;;;9.50;99.90;;;;;;4971282;28;20444;-55
2021/10/23 06:45:08;;;;;;;4.03;2.60;;;9.60;99.90;;;;;;4964269;28;20192;-55
2021/10/23 06:47:35;;;;;;;5.30;2.75;;;9.50;99.90;;;;;;4970646;28;20207;-55
2021/10/23 06:50:02;;;;;;;6.93;3.00;;;9.50;99.90;;;;;;4972902;28;20284;-55
2021/10/23 06:52:27;;;;;;;3.47;2.60;;;9.60;99.90;;;;;;4973423;28;20192;-54
2021/10/23 06:54:53;;;;;;;4.13;2.67;;;9.40;99.90;;;;;;4972197;28;20608;-54
2021/10/23 06:57:19;;;;;;;3.83;2.70;;;9.70;99.90;;;;;;4973686;28;20211;-55
2021/10/23 06:59:45;;;;;;;3.55;2.42;;;10.00;99.90;;;;;;4972164;28;20211;-55
2021/10/23 07:02:10;;;;;;;6.23;2.87;;;9.70;99.90;;;;;;4971139;28;20232;-55
2021/10/23 07:04:36;;;;;;;5.80;2.90;;;9.70;99.90;;;;;;4973342;28;20194;-55
2021/10/23 07:07:01;;;;;;;4.50;2.97;;;9.80;99.90;;;;;;4972683;28;20196;-56
2021/10/23 07:09:27;;;;;;;2.27;2.07;;;9.90;99.90;;;;;;4968528;28;20291;-55
2021/10/23 07:11:53;;;;;;;2.45;2.25;;;10.10;99.90;;;;;;4962918;28;20208;-55
2021/10/23 07:14:19;;;;;;;4.73;2.57;;;9.90;99.90;;;;;;4972520;28;20205;-55
2021/10/23 07:16:45;;;;;;;2.47;2.27;;;10.30;99.90;;;;;;4968670;28;20306;-55
2021/10/23 07:19:10;;;;;;;3.03;2.50;;;10.30;99.90;;;;;;4967591;28;20232;-56
2021/10/23 07:21:36;;;;;;;4.63;2.90;;;10.10;99.90;;;;;;4967490;28;20726;-55
2021/10/23 07:24:02;;;;;;;5.07;2.90;;;10.30;99.90;;;;;;4970204;28;20189;-55
2021/10/23 07:26:28;;;;;;;4.37;3.20;;;10.20;99.90;;;;;;4970731;28;20263;-55
2021/10/23 07:28:54;;;;;;;6.63;2.90;;;10.30;99.90;;;;;;4969801;28;20460;-55
2021/10/23 07:31:19;;;;;;;3.13;2.63;;;10.60;99.90;;;;;;4964900;28;20211;-55
2021/10/23 07:33:45;;;;;;;4.90;2.60;;;10.80;99.90;;;;;;4966932;28;20207;-57
2021/10/23 07:36:13;;;;;;;3.72;3.15;;;11.00;99.90;;;;;;4966634;28;20271;-56
2021/10/23 07:38:39;;;;;;;7.00;2.28;;;10.70;99.90;;;;;;4971969;28;20252;-56
2021/10/23 07:41:04;;;;;;;2.83;2.50;;;10.70;99.90;;;;;;4968586;28;20190;-56
2021/10/23 07:43:30;;;;;;;3.93;2.50;;;10.90;99.90;;;;;;4970805;28;20655;-57
2021/10/23 07:45:56;;;;;;;4.17;2.67;;;10.70;99.90;;;;;;4967257;28;20218;-57
2021/10/23 07:48:21;;;;;;;4.60;2.50;;;10.70;99.90;;;;;;4970793;28;20201;-56
2021/10/23 07:50:48;;;;;;;4.10;2.60;;;10.80;99.90;;;;;;4971287;28;20272;-56
2021/10/23 07:53:15;;;;;;;3.92;3.05;;;10.60;99.90;;;;;;4971463;28;20180;-56
2021/10/23 07:55:40;;;;;;;4.30;2.97;;;10.70;99.90;;;;;;4970317;28;20193;-56
2021/10/23 07:58:07;;;;;;;6.23;3.43;;;10.80;99.90;;;;;;4969944;28;20215;-56
2021/10/23 08:00:33;;;;;;;3.15;2.63;;;10.60;99.90;;;;;;4960275;28;20257;-56
2021/10/23 08:03:02;;;;;;;3.33;2.30;;;10.30;99.90;;;;;;4948142;28;20197;-56
2021/10/23 08:05:32;;;;;;;4.60;2.10;;;10.60;99.90;;;;;;4966278;28;20941;-55
2021/10/23 08:07:58;;;;;;;6.45;4.25;;;10.60;99.90;;;;;;4964072;28;20185;-56
2021/10/23 08:10:26;;;;;;;4.93;2.50;;;10.70;99.90;;;;;;4969820;28;20205;-55
2021/10/23 08:12:53;;;;;;;3.38;2.40;;;10.40;99.90;;;;;;4952561;28;20673;-57
2021/10/23 08:15:19;;;;;;;2.42;2.20;;;10.80;99.90;;;;;;4969301;28;20228;-55
2021/10/23 08:17:45;;;;;;;4.60;2.40;;;10.60;99.90;;;;;;4968639;28;20690;-54
2021/10/23 08:20:12;;;;;;;3.50;2.33;;;10.60;99.90;;;;;;4970924;28;20480;-55
2021/10/23 08:22:39;;;;;;;5.38;2.58;;;10.70;99.90;;;;;;4970310;28;20548;-56
2021/10/23 08:25:07;;;;;;;4.03;2.10;;;10.80;99.90;;;;;;4970021;28;20194;-57
2021/10/23 08:27:34;;;;;;;6.30;2.53;;;10.80;99.90;;;;;;4970486;28;20196;-54
2021/10/23 08:30:05;;;;;;;5.10;3.95;;;10.80;99.90;;;;;;4969697;28;20255;-56
2021/10/23 08:32:31;;;;;;;5.05;3.20;;;10.80;99.90;;;;;;4969198;28;20211;-57
2021/10/23 08:34:58;;;;;;;4.77;2.50;;;10.90;99.90;;;;;;4951828;28;20236;-55
2021/10/23 08:37:24;;;;;;;3.85;2.50;;;11.00;99.90;;;;;;4969705;28;20201;-55
2021/10/23 08:39:50;;;;;;;3.30;2.30;;;11.10;99.90;;;;;;4975584;28;20198;-55
2021/10/23 08:42:17;;;;;;;4.53;2.92;;;11.20;99.90;;;;;;4973064;28;20859;-57
2021/10/23 08:44:44;;;;;;;3.75;2.60;;;11.60;99.90;;;;;;4950480;28;20186;-58
2021/10/23 08:47:10;;;;;;;6.30;2.88;;;11.70;99.90;;;;;;4965464;28;20553;-57
2021/10/23 08:49:37;;;;;;;3.78;2.45;;;11.60;99.90;;;;;;4973330;28;20257;-57
2021/10/23 08:52:03;;;;;;;3.90;2.38;;;11.90;99.90;;;;;;4976044;28;20188;-55
2021/10/23 08:54:30;;;;;;;3.95;2.40;;;12.90;99.40;;;;;;4969956;28;20314;-56
2021/10/23 08:56:57;;;;;;;5.72;2.65;;;13.70;98.00;;;;;;4966910;28;20208;-56
2021/10/23 08:59:22;;;;;;;3.78;2.33;;;14.80;95.90;;;;;;4969449;28;20200;-59
2021/10/23 09:01:48;;;;;;;4.30;2.63;;;14.40;94.60;;;;;;4965817;28;20190;-59
2021/10/23 09:04:14;;;;;;;4.10;2.57;;;14.50;94.00;;;;;;4961161;28;20279;-58
2021/10/23 09:06:40;;;;;;;3.57;2.80;;;13.80;95.10;;;;;;4963470;28;20188;-58
2021/10/23 09:09:12;;;;;;;5.47;2.90;;;13.70;96.20;;;;;;4966562;28;20292;-58
2021/10/23 09:11:43;;;;;;;5.43;2.95;;;13.60;96.20;;;;;;4968716;28;20263;-57
2021/10/23 09:14:22;;;;;;;3.58;2.20;;;13.70;96.00;;;;;;4968526;28;20212;-58
2021/10/23 09:17:09;;;;;;;3.80;2.65;;;13.30;95.90;;;;;;4966055;28;20204;-58
2021/10/23 09:19:46;;;;;;;5.43;3.33;;;13.50;96.00;;;;;;4965998;28;20204;-58
2021/10/23 09:22:23;;;;;;;3.78;3.15;;;13.40;95.90;;;;;;4966199;28;20526;-58
2021/10/23 09:24:50;;;;;;;5.20;3.25;;;13.90;95.70;;;;;;4965169;28;20203;-56
2021/10/23 09:27:20;;;;;;;4.28;2.80;;;14.00;95.20;;;;;;4968395;28;20681;-55
2021/10/23 09:29:58;;;;;;;5.45;3.00;;;14.20;95.20;;;;;;4966953;28;20750;-57
2021/10/23 09:32:32;;;;;;;3.60;2.70;;;14.20;94.60;;;;;;4960302;28;20252;-58
2021/10/23 09:35:14;;;;;;;4.80;2.10;;;14.40;94.70;;;;;;4968352;28;20243;-55
2021/10/23 09:37:44;;;;;;;3.22;2.58;;;14.20;94.60;;;;;;4970589;28;20268;-57
2021/10/23 09:40:14;;;;;;;4.40;2.70;;;13.90;95.30;;;;;;4967703;28;20215;-56
2021/10/23 09:42:40;;;;;;;3.72;2.15;;;14.10;95.00;;;;;;4974283;28;20183;-57
2021/10/23 09:45:06;;;;;;;3.77;3.03;;;13.90;94.80;;;;;;4975835;28;20188;-55
2021/10/23 09:47:43;;;;;;;6.28;2.70;;;13.70;94.50;;;;;;4973923;28;20571;-56
2021/10/23 09:50:14;;;;;;;2.70;2.30;;;13.80;95.30;;;;;;4970301;28;20605;-56
2021/10/23 09:53:02;;;;;;;4.15;2.75;;;14.00;95.10;;;;;;4967036;28;20192;-56
2021/10/23 09:55:31;;;;;;;3.42;2.55;;;14.00;94.70;;;;;;4962997;28;20206;-56
2021/10/23 09:58:19;;;;;;;3.70;3.40;;;14.00;94.50;;;;;;4972774;28;20204;-56
2021/10/23 10:00:47;;;;;;;4.90;2.40;;;14.20;94.30;;;;;;4949058;28;20596;-56
2021/10/23 10:03:13;;;;;;;8.38;2.70;;;13.90;94.00;;;;;;4968727;28;20180;-57
2021/10/23 10:05:40;;;;;;;6.05;2.80;;;13.90;94.50;;;;;;4975755;28;20190;-56
2021/10/23 10:08:13;;;;;;;3.58;3.03;;;13.60;94.90;;;;;;4974521;28;20307;-56
2021/10/23 10:10:44;;;;;;;4.45;3.25;;;13.50;95.80;;;;;;4977217;28;20208;-57
2021/10/23 10:13:12;;;;;;;3.50;2.75;;;13.40;95.20;;;;;;4974893;28;20195;-57
2021/10/23 10:15:39;;;;;;;4.00;2.47;;;13.70;95.20;;;;;;4979455;28;20491;-56
2021/10/23 10:18:08;;;;;;;4.45;2.35;;;13.50;95.30;;;;;;4974691;28;20219;-57
2021/10/23 10:20:37;;;;;;;5.85;2.70;;;13.70;95.20;;;;;;4974867;28;20759;-57
2021/10/23 10:23:06;;;;;;;3.30;2.03;;;14.30;94.90;;;;;;4979164;28;20554;-57
2021/10/23 10:25:32;;;;;;;4.07;2.28;;;14.60;92.90;;;;;;4972802;28;20216;-58
2021/10/23 10:28:13;;;;;;;4.87;1.90;;;15.20;92.40;;;;;;4973079;28;20690;-57
2021/10/23 10:30:41;;;;;;;3.42;2.75;;;15.80;90.40;;;;;;4968609;28;21032;-57
2021/10/23 10:33:34;;;;;;;3.70;2.80;;;15.70;91.20;;;;;;4976796;28;20194;-57
2021/10/23 10:44:12;;;;;;;5.00;3.85;;;16.10;90.70;;;;;;4977547;28;20187;-57
2021/10/23 10:47:06;;;;;;;4.10;3.70;;;15.80;91.50;;;;;;4979315;28;20237;-56
2021/10/23 10:49:52;;;;;;;6.22;3.70;;;15.60;91.80;;;;;;4976197;28;20297;-56
2021/10/23 10:52:40;;;;;;;5.53;3.67;;;15.50;91.90;;;;;;4973256;28;20186;-56
2021/10/23 10:55:17;;;;;;;4.00;3.55;;;15.60;91.70;;;;;;4969291;28;20528;-57
2021/10/23 10:58:05;;;;;;;7.18;3.97;;;15.60;92.00;;;;;;4953916;28;20665;-56
2021/10/23 11:00:45;;;;;;;6.10;3.67;;;15.90;91.50;;;;;;4974639;28;20204;-58
2021/10/23 11:03:45;;;;;;;4.68;4.22;;;15.90;92.30;;;;;;4970900;28;20493;-59
2021/10/23 11:06:33;;;;;;;5.03;3.70;;;16.30;90.90;;;;;;4976789;28;20188;-58
2021/10/23 11:09:10;;;;;;;6.35;2.90;;;17.10;90.10;;;;;;4975090;28;20206;-56
2021/10/23 11:11:49;;;;;;;4.15;3.20;;;17.10;86.60;;;;;;4974125;28;20688;-56
2021/10/23 11:14:34;;;;;;;3.58;3.28;;;17.30;84.70;;;;;;4973565;28;20668;-57
2021/10/23 11:17:04;;;;;;;4.35;2.50;;;17.40;84.60;;;;;;4975291;28;20211;-56
2021/10/23 11:19:48;;;;;;;4.38;3.00;;;18.00;81.50;;;;;;4972512;28;20604;-56
2021/10/23 11:22:18;;;;;;;5.13;2.97;;;18.20;79.50;;;;;;4981005;28;20226;-57
2021/10/23 11:24:51;;;;;;;2.88;2.63;;;18.40;78.80;;;;;;4950305;28;20225;-56
2021/10/23 11:27:32;;;;;;;3.75;3.25;;;18.60;78.40;;;;;;4959772;28;20185;-56
2021/10/23 11:30:25;;;;;;;5.05;3.10;;;18.40;78.80;;;;;;4973875;28;20605;-58
2021/10/23 11:32:57;;;;;;;2.80;2.60;;;17.50;79.60;;;;;;4972532;28;20207;-58
2021/10/23 11:35:33;;;;;;;4.18;2.58;;;16.30;81.60;;;;;;4967614;28;20254;-58
2021/10/23 11:38:03;;;;;;;5.05;2.90;;;16.00;82.50;;;;;;4972843;28;20203;-57
2021/10/23 11:40:30;;;;;;;3.50;2.65;;;15.90;84.70;;;;;;4965621;28;20673;-57
2021/10/23 11:42:55;;;;;;;3.20;2.83;;;15.70;85.30;;;;;;4970744;28;20662;-57
2021/10/23 11:45:30;;;;;;;2.63;2.43;;;15.20;84.60;;;;;;4972430;28;20177;-57
2021/10/23 11:47:57;;;;;;;3.45;2.50;;;15.40;84.40;;;;;;4978045;28;20301;-57
2021/10/23 11:50:28;;;;;;;4.53;2.97;;;14.80;85.30;;;;;;4973740;28;20216;-57
2021/10/23 11:52:59;;;;;;;3.45;3.15;;;14.80;85.90;;;;;;4972739;28;20188;-57
2021/10/23 11:55:45;;;;;;;3.20;2.70;;;14.30;86.20;;;;;;4971602;28;20207;-57
2021/10/23 11:58:17;;;;;;;4.20;3.25;;;14.10;87.20;;;;;;4970906;28;20220;-57
2021/10/23 12:00:49;;;;;;;4.40;3.28;;;14.30;87.30;;;;;;4962931;28;20234;-57
2021/10/23 12:03:26;;;;;;;3.35;2.30;;;14.10;86.50;;;;;;4970469;28;20196;-56
2021/10/23 12:05:52;;;;;;;1.77;1.58;;;13.90;85.40;;;;;;4965558;28;20184;-57
2021/10/23 12:08:28;;;;;;;7.77;2.03;;;14.10;83.20;;;;;;4971570;28;20536;-57
2021/10/23 12:11:04;;;;;;;2.33;2.13;;;13.80;85.50;;;;;;4963659;28;20450;-57
2021/10/23 12:13:50;;;;;;;2.75;2.55;;;13.90;85.30;;;;;;4968619;28;20196;-58
2021/10/23 12:16:38;;;;;;;4.47;2.35;;;14.00;85.90;;;;;;4970574;28;20211;-58
2021/10/23 12:19:20;;;;;;;4.00;2.83;;;14.40;82.20;;;;;;4963549;28;20231;-56
2021/10/23 12:21:48;;;;;;;11.00;10.00;;;14.70;85.60;;;;;;4969485;28;20188;-57
2021/10/23 12:24:19;;;;;;;3.55;2.22;;;15.10;85.30;;;;;;4953741;28;20280;-56
2021/10/23 12:27:09;;;;;;;3.13;2.08;;;15.10;84.00;;;;;;4970787;28;20294;-56
2021/10/23 12:29:59;;;;;;;2.40;2.20;;;15.20;80.70;;;;;;4955883;28;20267;-57
2021/10/23 12:32:25;;;;;;;3.83;1.67;;;15.30;81.60;;;;;;4954902;28;20468;-57
2021/10/23 12:34:50;;;;;;;2.67;2.00;;;15.40;79.30;;;;;;4970558;28;20184;-57
2021/10/23 12:37:34;;;;;;;2.73;1.50;;;15.20;78.80;;;;;;4970946;28;20220;-58
2021/10/23 12:40:35;;;;;;;3.35;2.13;;;15.00;78.10;;;;;;4960965;28;20192;-57
2021/10/23 12:43:12;;;;;;;2.78;2.30;;;15.10;80.10;;;;;;4968565;28;20184;-57
2021/10/23 12:45:43;;;;;;;4.00;2.28;;;15.10;79.50;;;;;;4967250;28;20184;-57
2021/10/23 12:48:12;;;;;;;2.20;1.77;;;15.20;80.00;;;;;;4970522;28;20295;-57
2021/10/23 12:50:41;;;;;;;2.40;2.13;;;15.10;80.80;;;;;;4970336;28;20208;-57
2021/10/23 12:53:08;;;;;;;2.85;2.08;;;15.20;79.00;;;;;;4964496;28;20250;-57
2021/10/23 12:55:34;;;;;;;6.03;3.58;;;15.40;80.00;;;;;;4968957;28;20527;-55
2021/10/23 12:58:00;;;;;;;3.08;2.38;;;15.00;78.90;;;;;;4970352;28;20208;-56
2021/10/23 13:00:26;;;;;;;2.80;1.88;;;14.90;79.30;;;;;;4969919;28;20582;-55
2021/10/23 13:02:52;;;;;;;2.70;2.20;;;14.90;77.80;;;;;;4970641;28;20180;-56
2021/10/23 13:05:18;;;;;;;3.63;1.90;;;14.90;78.20;;;;;;4969855;28;20295;-56